createdAt,value
2019-06-08T00:00:36.937Z,97875.30
2019-06-08T00:04:41.837Z,97891.35
2019-06-08T00:08:46.741Z,97902.59
2019-06-08T00:12:51.636Z,97889.54
2019-06-08T00:16:56.528Z,97852.73
2019-06-08T00:21:01.440Z,97852.73
2019-06-08T00:25:06.578Z,97870.59
2019-06-08T00:29:11.516Z,97857.53
2019-06-08T00:33:17.058Z,97867.11
2019-06-08T00:37:22.914Z,97859.77
2019-06-08T00:41:27.837Z,97869.24
2019-06-08T00:45:32.739Z,97869.17
2019-06-08T00:49:37.635Z,97873.94
2019-06-08T00:53:42.798Z,97866.69
2019-06-08T00:57:47.867Z,97879.77
2019-06-08T01:01:52.764Z,97882.83
2019-06-08T01:05:57.660Z,97881.83
2019-06-08T01:10:02.561Z,97888.18
2019-06-08T01:14:07.451Z,97895.05
2019-06-08T01:18:12.378Z,97893.25
2019-06-08T01:22:17.253Z,97895.56
2019-06-08T01:26:22.366Z,97897.27
2019-06-08T01:30:28.412Z,97918.31
2019-06-08T01:34:33.496Z,97930.22
2019-06-08T01:38:38.393Z,97931.15
2019-06-08T01:42:43.291Z,97941.07
2019-06-08T01:46:48.300Z,97935.24
2019-06-08T01:50:53.741Z,97919.78
2019-06-08T01:54:58.633Z,97937.78
2019-06-08T01:59:03.534Z,97939.70
2019-06-08T02:03:09.513Z,97917.26
2019-06-08T02:07:14.406Z,97931.95
2019-06-08T02:11:19.305Z,97936.57
2019-06-08T02:15:25.260Z,97952.13
2019-06-08T02:19:30.577Z,97968.20
2019-06-08T02:23:35.480Z,97965.57
2019-06-08T02:27:40.374Z,97958.06
2019-06-08T02:31:47.964Z,97983.64
2019-06-08T02:35:51.935Z,97969.48
2019-06-08T02:39:56.837Z,97973.44
2019-06-08T02:44:01.733Z,97995.17
2019-06-08T02:48:06.707Z,98010.94
2019-06-08T02:52:11.683Z,98013.33
2019-06-08T02:56:17.940Z,98015.96
2019-06-08T03:00:22.979Z,98022.15
2019-06-08T03:04:32.262Z,98013.86
2019-06-08T03:08:39.223Z,98028.20
2019-06-08T03:12:45.919Z,98028.20
2019-06-08T03:16:50.807Z,98032.91
2019-06-08T03:20:55.709Z,98042.52
2019-06-08T03:25:00.606Z,98041.52
2019-06-08T03:29:05.511Z,98034.47
2019-06-08T03:33:10.409Z,98038.38
2019-06-08T03:37:15.297Z,98039.52
2019-06-08T03:41:20.204Z,98059.10
2019-06-08T03:45:25.103Z,98063.41
2019-06-08T03:49:42.924Z,98067.05
2019-06-08T03:53:37.969Z,98079.78
2019-06-08T03:57:44.063Z,98081.64
2019-06-08T04:01:50.001Z,98085.38
2019-06-08T04:05:54.936Z,98090.39
2019-06-08T04:09:59.840Z,98096.44
2019-06-08T04:14:05.178Z,98091.86
2019-06-08T04:18:10.071Z,98098.98
2019-06-08T04:22:15.033Z,98107.00
2019-06-08T04:26:19.961Z,98126.16
2019-06-08T04:30:24.972Z,98126.97
2019-06-08T04:34:29.870Z,98132.89
2019-06-08T04:38:34.759Z,98123.06
2019-06-08T04:42:41.570Z,98139.50
2019-06-08T04:46:47.865Z,98143.02
2019-06-08T04:50:52.886Z,98143.02
2019-06-08T04:54:57.756Z,98169.05
2019-06-08T04:59:02.713Z,98177.84
2019-06-08T05:03:07.618Z,98190.91
2019-06-08T05:07:12.506Z,98179.64
2019-06-08T05:11:17.402Z,98186.19
2019-06-08T05:15:22.308Z,98186.79
2019-06-08T05:19:27.189Z,98175.72
2019-06-08T05:23:32.083Z,98186.16
2019-06-08T05:27:36.986Z,98181.30
2019-06-08T05:31:43.441Z,98181.45
2019-06-08T05:35:49.676Z,98186.80
2019-06-08T05:39:54.735Z,98191.46
2019-06-08T05:43:59.636Z,98189.88
2019-06-08T05:48:04.604Z,98191.02
2019-06-08T05:52:09.501Z,98193.78
2019-06-08T05:56:14.409Z,98191.72
2019-06-08T06:00:19.438Z,98200.01
2019-06-08T06:04:24.341Z,98228.00
2019-06-08T06:08:29.229Z,98229.62
2019-06-08T06:12:34.128Z,98242.45
2019-06-08T06:16:39.044Z,98260.98
2019-06-08T06:20:45.258Z,98274.82
2019-06-08T06:24:50.301Z,98285.08
2019-06-08T06:28:55.196Z,98287.67
2019-06-08T06:33:00.105Z,98294.33
2019-06-08T06:37:05.074Z,98301.14
2019-06-08T06:41:09.971Z,98317.95
2019-06-08T06:45:15.196Z,98326.50
2019-06-08T06:49:20.101Z,98331.56
2019-06-08T06:53:25.011Z,98341.48
2019-06-08T06:57:29.895Z,98351.78
2019-06-08T07:01:34.793Z,98346.30
2019-06-08T07:05:39.695Z,98339.50
2019-06-08T07:09:44.585Z,98344.12
2019-06-08T07:13:50.806Z,98356.17
2019-06-08T07:17:56.809Z,98350.00
2019-06-08T07:22:02.845Z,98361.93
2019-06-08T07:26:07.746Z,98352.25
2019-06-08T07:30:13.015Z,98345.11
2019-06-08T07:34:17.965Z,98352.38
2019-06-08T07:38:22.868Z,98346.70
2019-06-08T07:42:27.761Z,98354.35
2019-06-08T07:46:32.648Z,98361.65
2019-06-08T07:50:37.549Z,98364.89
2019-06-08T07:54:42.462Z,98367.95
2019-06-08T07:58:49.596Z,98383.65
2019-06-08T08:02:56.202Z,98381.56
2019-06-08T08:07:01.120Z,98397.25
2019-06-08T08:11:06.015Z,98387.06
2019-06-08T08:15:11.551Z,98384.08
2019-06-08T08:19:16.455Z,98371.38
2019-06-08T08:23:21.356Z,98378.18
2019-06-08T08:27:28.052Z,98374.09
2019-06-08T08:31:32.844Z,98374.41
2019-06-08T08:35:38.082Z,98385.53
2019-06-08T08:39:43.229Z,98403.41
2019-06-08T08:43:50.141Z,98411.62
2019-06-08T08:48:10.373Z,98437.27
2019-06-08T08:52:01.812Z,98441.52
2019-06-08T08:56:07.322Z,98441.62
2019-06-08T09:00:13.233Z,98435.00
2019-06-08T09:04:18.608Z,98438.27
2019-06-08T09:08:23.621Z,98449.61
2019-06-08T09:12:28.545Z,98447.39
2019-06-08T09:16:33.431Z,98455.17
2019-06-08T09:20:38.330Z,98463.30
2019-06-08T09:24:43.247Z,98471.84
2019-06-08T09:28:48.124Z,98473.70
2019-06-08T09:32:54.332Z,98482.52
2019-06-08T09:37:01.361Z,98481.22
2019-06-08T09:41:08.784Z,98487.39
2019-06-08T09:45:12.964Z,98484.35
2019-06-08T09:49:18.741Z,98482.55
2019-06-08T09:53:34.159Z,98486.16
2019-06-08T09:57:30.545Z,98490.02
2019-06-08T10:01:35.446Z,98488.88
2019-06-08T10:05:40.336Z,98493.31
2019-06-08T10:09:47.382Z,98500.77
2019-06-08T10:13:51.838Z,98507.19
2019-06-08T10:17:56.915Z,98509.96
2019-06-08T10:22:03.047Z,98505.72
2019-06-08T10:26:07.960Z,98516.32
2019-06-08T10:30:13.303Z,98510.85
2019-06-08T10:34:18.193Z,98528.03
2019-06-08T10:38:23.094Z,98515.18
2019-06-08T10:42:27.997Z,98530.89
2019-06-08T10:46:32.896Z,98532.49
2019-06-08T10:50:37.792Z,98533.25
2019-06-08T10:54:42.697Z,98549.14
2019-06-08T10:58:49.699Z,98531.55
2019-06-08T11:02:54.183Z,98528.77
2019-06-08T11:07:04.292Z,98540.08
2019-06-08T11:11:11.541Z,98544.03
2019-06-08T11:15:12.593Z,98553.42
2019-06-08T11:19:18.701Z,98554.80
2019-06-08T11:23:23.705Z,98568.66
2019-06-08T11:27:28.699Z,98572.72
2019-06-08T11:31:33.582Z,98563.70
2019-06-08T11:35:39.233Z,98568.23
2019-06-08T11:39:44.138Z,98569.41
2019-06-08T11:43:49.030Z,98558.51
2019-06-08T11:47:53.939Z,98572.62
2019-06-08T11:52:00.365Z,98581.74
2019-06-08T11:56:07.238Z,98588.95
2019-06-08T12:00:26.772Z,98574.56
2019-06-08T12:04:21.832Z,98598.58
2019-06-08T12:08:28.466Z,98592.54
2019-06-08T12:12:33.336Z,98588.26
2019-06-08T12:16:38.234Z,98590.50
2019-06-08T12:20:43.135Z,98586.66
2019-06-08T12:24:48.037Z,98579.82
2019-06-08T12:28:52.935Z,98586.52
2019-06-08T12:32:58.230Z,98580.78
2019-06-08T12:37:03.121Z,98583.19
2019-06-08T12:41:09.617Z,98582.36
2019-06-08T12:45:15.465Z,98590.88
2019-06-08T12:49:20.587Z,98588.77
2019-06-08T12:53:25.485Z,98576.42
2019-06-08T12:57:30.419Z,98581.41
2019-06-08T13:01:35.298Z,98593.97
2019-06-08T13:05:40.207Z,98589.78
2019-06-08T13:09:45.112Z,98597.27
2019-06-08T13:13:50.022Z,98586.02
2019-06-08T13:17:54.959Z,98585.44
2019-06-08T13:21:59.842Z,98593.33
2019-06-08T13:26:04.874Z,98587.14
2019-06-08T13:30:11.547Z,98584.45
2019-06-08T13:34:20.655Z,98579.90
2019-06-08T13:38:23.451Z,98589.95
2019-06-08T13:42:29.413Z,98590.05
2019-06-08T13:46:34.339Z,98591.73
2019-06-08T13:50:39.244Z,98589.45
2019-06-08T13:54:44.170Z,98599.37
2019-06-08T13:58:49.070Z,98598.78
2019-06-08T14:02:53.955Z,98599.13
2019-06-08T14:06:58.879Z,98597.31
2019-06-08T14:11:03.779Z,98597.55
2019-06-08T14:15:08.937Z,98591.96
2019-06-08T14:19:13.826Z,98599.60
2019-06-08T14:23:21.256Z,98593.08
2019-06-08T14:27:25.520Z,98592.11
2019-06-08T14:31:32.160Z,98593.31
2019-06-08T14:35:37.198Z,98590.87
2019-06-08T14:39:42.104Z,98598.61
2019-06-08T14:43:48.263Z,98606.22
2019-06-08T14:47:54.571Z,98593.30
2019-06-08T14:51:59.473Z,98604.91
2019-06-08T14:56:08.488Z,98592.70
2019-06-08T15:00:12.238Z,98591.74
2019-06-08T15:04:20.267Z,98592.92
2019-06-08T15:08:23.976Z,98600.92
2019-06-08T15:12:31.339Z,98589.17
2019-06-08T15:16:35.488Z,98591.74
2019-06-08T15:20:40.390Z,98594.03
2019-06-08T15:24:45.288Z,98586.16
2019-06-08T15:28:50.754Z,98584.47
2019-06-08T15:32:55.661Z,98587.14
2019-06-08T15:37:00.562Z,98595.27
2019-06-08T15:41:07.685Z,98587.14
2019-06-08T15:45:12.560Z,98588.23
2019-06-08T15:49:18.629Z,98590.28
2019-06-08T15:53:24.345Z,98590.69
2019-06-08T15:57:33.074Z,98591.87
2019-06-08T16:01:36.967Z,98594.40
2019-06-08T16:05:41.792Z,98588.45
2019-06-08T16:09:46.687Z,98586.88
2019-06-08T16:13:52.657Z,98590.87
2019-06-08T16:17:58.629Z,98593.39
2019-06-08T16:22:03.601Z,98589.75
2019-06-08T16:26:08.491Z,98597.13
2019-06-08T16:30:13.856Z,98599.80
2019-06-08T16:34:18.758Z,98597.13
2019-06-08T16:38:23.655Z,98598.21
2019-06-08T16:42:28.556Z,98593.03
2019-06-08T16:46:34.812Z,98598.97
2019-06-08T16:50:40.700Z,98600.41
2019-06-08T16:54:45.599Z,98602.80
2019-06-08T16:58:50.505Z,98604.72
2019-06-08T17:02:55.414Z,98607.17
2019-06-08T17:07:01.375Z,98605.82
2019-06-08T17:11:06.717Z,98605.78
2019-06-08T17:15:12.440Z,98614.09
2019-06-08T17:19:17.370Z,98615.28
2019-06-08T17:23:22.267Z,98614.11
2019-06-08T17:27:27.383Z,98609.52
2019-06-08T17:31:33.005Z,98606.75
2019-06-08T17:35:37.960Z,98604.56
2019-06-08T17:39:42.898Z,98610.80
2019-06-08T17:43:47.795Z,98603.70
2019-06-08T17:47:52.678Z,98606.55
2019-06-08T17:51:57.598Z,98605.29
2019-06-08T17:56:02.497Z,98610.61
2019-06-08T18:00:08.846Z,98606.34
2019-06-08T18:04:14.374Z,98605.11
2019-06-08T18:08:19.341Z,98615.45
2019-06-08T18:12:24.238Z,98615.28
2019-06-08T18:16:29.303Z,98621.39
2019-06-08T18:20:34.322Z,98619.95
2019-06-08T18:24:40.869Z,98630.02
2019-06-08T18:28:48.345Z,98627.20
2019-06-08T18:32:52.376Z,98627.55
2019-06-08T18:36:57.960Z,98630.25
2019-06-08T18:41:02.957Z,98630.44
2019-06-08T18:45:08.193Z,98628.80
2019-06-08T18:49:13.076Z,98634.88
2019-06-08T18:53:19.211Z,98632.42
2019-06-08T18:57:27.423Z,98639.84
2019-06-08T19:01:31.735Z,98639.67
2019-06-08T19:05:40.203Z,98649.59
2019-06-08T19:09:46.012Z,98654.42
2019-06-08T19:13:52.621Z,98657.90
2019-06-08T19:17:57.829Z,98660.20
2019-06-08T19:22:03.870Z,98661.14
2019-06-08T19:26:09.842Z,98662.72
2019-06-08T19:30:14.981Z,98659.83
2019-06-08T19:34:19.873Z,98669.70
2019-06-08T19:38:24.767Z,98672.75
2019-06-08T19:42:39.147Z,98683.41
2019-06-08T19:46:36.268Z,98689.11
2019-06-08T19:50:41.696Z,98687.69
2019-06-08T19:54:52.459Z,98694.59
2019-06-08T19:59:01.699Z,98694.69
2019-06-08T20:03:00.818Z,98703.75
2019-06-08T20:07:08.474Z,98703.23
2019-06-08T20:11:12.320Z,98709.55
2019-06-08T20:15:18.382Z,98706.60
2019-06-08T20:19:23.454Z,98709.66
2019-06-08T20:23:28.348Z,98722.02
2019-06-08T20:27:33.245Z,98719.38
2019-06-08T20:31:38.982Z,98726.61
2019-06-08T20:35:43.925Z,98724.30
2019-06-08T20:40:04.266Z,98731.27
2019-06-08T20:43:57.783Z,98721.90
2019-06-08T20:48:02.024Z,98721.23
2019-06-08T20:52:08.603Z,98729.47
2019-06-08T20:56:13.593Z,98729.83
2019-06-08T21:00:18.816Z,98734.89
2019-06-08T21:04:23.724Z,98739.27
2019-06-08T21:08:28.623Z,98742.13
2019-06-08T21:12:33.520Z,98742.13
2019-06-08T21:16:38.431Z,98749.52
2019-06-08T21:20:43.305Z,98757.22
2019-06-08T21:24:51.793Z,98764.83
2019-06-08T21:28:56.630Z,98764.44
2019-06-08T21:33:01.385Z,98755.98
2019-06-08T21:37:06.276Z,98758.14
2019-06-08T21:41:11.167Z,98765.11
2019-06-08T21:45:18.736Z,98763.58
2019-06-08T21:49:22.729Z,98765.27
2019-06-08T21:53:27.669Z,98772.93
2019-06-08T21:57:32.514Z,98767.34
2019-06-08T22:01:37.816Z,98772.52
2019-06-08T22:05:42.723Z,98780.23
2019-06-08T22:09:48.096Z,98784.63
2019-06-08T22:13:53.044Z,98785.52
2019-06-08T22:18:00.161Z,98787.91
2019-06-08T22:22:04.622Z,98791.27
2019-06-08T22:26:09.519Z,98797.52
2019-06-08T22:30:32.413Z,98795.13
2019-06-08T22:34:21.364Z,98786.30
2019-06-08T22:38:26.252Z,98783.20
2019-06-08T22:42:31.149Z,98794.16
2019-06-08T22:46:37.557Z,98791.72
2019-06-08T22:50:42.634Z,98792.66
2019-06-08T22:54:47.693Z,98789.55
2019-06-08T22:58:54.255Z,98798.44
2019-06-08T23:03:02.267Z,98794.16
2019-06-08T23:07:06.973Z,98794.31
2019-06-08T23:11:12.455Z,98805.01
2019-06-08T23:15:18.374Z,98800.56
2019-06-08T23:19:26.304Z,98802.73
2019-06-08T23:23:29.994Z,98801.43
2019-06-08T23:27:34.895Z,98792.12
2019-06-08T23:31:39.793Z,98795.89
2019-06-08T23:36:27.466Z,98801.99
2019-06-08T23:39:51.716Z,98790.31
2019-06-08T23:43:57.457Z,98794.38
2019-06-08T23:48:02.833Z,98799.01
2019-06-08T23:52:10.420Z,98794.81
2019-06-08T23:56:14.518Z,98795.34
